Time;durP1;ratioP1;P1;durP2;ratioP2;P2;SDS_P1;SDS_P2;PMS_P1;PMS_P2;Temp;Humidity;BMP_temperature;BMP_pressure;BME280_temperature;BME280_humidity;BME280_pressure;Samples;Min_cycle;Max_cycle;Signal;HPM_P1;HPM_P2
2021/05/10 00:01:29;;;;;;;;;;;;;;;13.22;54.87;100419.06;1730974;81;20294;-75
2021/05/10 00:03:55;;;;;;;;;;;;;;;13.18;54.83;100422.20;1731168;82;20307;-75
2021/05/10 00:06:21;;;;;;;;;;;;;;;13.14;54.97;100421.86;1737302;81;20284;-75
2021/05/10 00:08:48;;;;;;;;;;;;;;;13.11;54.99;100414.16;1730375;81;20757;-75
2021/05/10 00:11:14;;;;;;;;;;;;;;;13.08;54.99;100418.59;1732306;82;20474;-75
2021/05/10 00:13:45;;;;;;;;;;;;;;;13.03;55.15;100410.94;1732086;82;20285;-75
2021/05/10 00:16:09;;;;;;;;;;;;;;;13.01;55.14;100410.58;1717960;82;20785;-75
2021/05/10 00:18:35;;;;;;;;;;;;;;;12.97;55.33;100403.81;1731416;82;20769;-75
2021/05/10 00:21:01;;;;;;;;;;;;;;;12.96;55.41;100410.75;1731779;82;20240;-75
2021/05/10 00:23:27;;;;;;;;;;;;;;;12.94;55.40;100408.64;1732152;81;20229;-75
2021/05/10 00:25:52;;;;;;;;;;;;;;;12.91;55.29;100409.58;1732174;81;20312;-74
2021/05/10 00:28:19;;;;;;;;;;;;;;;12.86;55.47;100408.86;1729480;82;20189;-74
2021/05/10 00:30:45;;;;;;;;;;;;;;;12.82;55.49;100408.98;1729865;81;20289;-74
2021/05/10 00:33:11;;;;;;;;;;;;;;;12.78;55.56;100407.38;1732647;82;20154;-74
2021/05/10 00:35:37;;;;;;;;;;;;;;;12.74;55.63;100403.16;1732108;81;20678;-74
2021/05/10 00:38:03;;;;;;;;;;;;;;;12.72;55.75;100407.09;1732175;82;20186;-74
2021/05/10 00:40:31;;;;;;;;;;;;;;;12.71;55.65;100398.06;1714640;82;20138;-74
2021/05/10 00:42:58;;;;;;;;;;;;;;;12.70;55.81;100402.84;1732584;82;20195;-74
2021/05/10 00:45:24;;;;;;;;;;;;;;;12.66;55.71;100405.12;1732879;82;20237;-74
2021/05/10 00:47:51;;;;;;;;;;;;;;;12.62;55.85;100404.36;1732216;82;20162;-74
2021/05/10 00:50:18;;;;;;;;;;;;;;;12.60;55.95;100400.95;1732869;82;20868;-74
2021/05/10 00:52:45;;;;;;;;;;;;;;;12.58;55.98;100402.29;1736105;81;20428;-74
2021/05/10 00:55:12;;;;;;;;;;;;;;;12.55;55.93;100397.63;1735214;82;20281;-75
2021/05/10 00:57:48;;;;;;;;;;;;;;;12.51;56.03;100401.20;1731684;81;20285;-74
2021/05/10 01:00:16;;;;;;;;;;;;;;;12.46;56.09;100397.47;1730224;82;20166;-74
2021/05/10 01:02:44;;;;;;;;;;;;;;;12.44;56.20;100400.55;1729747;81;20167;-74
2021/05/10 01:05:10;;;;;;;;;;;;;;;12.42;56.24;100395.84;1731893;82;20289;-74
2021/05/10 01:07:36;;;;;;;;;;;;;;;12.39;56.27;100392.48;1730583;82;20291;-75
2021/05/10 01:10:06;;;;;;;;;;;;;;;12.37;56.29;100401.61;1730536;82;20835;-75
2021/05/10 01:12:32;;;;;;;;;;;;;;;12.35;56.27;100394.76;1731543;81;20226;-75
2021/05/10 01:14:58;;;;;;;;;;;;;;;12.34;56.24;100395.20;1731001;82;20529;-75
2021/05/10 01:17:24;;;;;;;;;;;;;;;12.32;56.37;100396.14;1731288;82;21595;-75
2021/05/10 01:19:50;;;;;;;;;;;;;;;12.28;56.31;100399.70;1730677;82;20323;-75
2021/05/10 01:22:17;;;;;;;;;;;;;;;12.22;56.36;100391.19;1730769;82;20513;-75
2021/05/10 01:24:43;;;;;;;;;;;;;;;12.20;56.44;100406.37;1730734;82;20304;-75
2021/05/10 01:27:10;;;;;;;;;;;;;;;12.18;56.43;100393.91;1730148;82;20293;-75
2021/05/10 01:29:37;;;;;;;;;;;;;;;12.16;56.63;100393.94;1731014;82;20541;-76
2021/05/10 01:32:04;;;;;;;;;;;;;;;12.14;56.59;100393.13;1731856;81;20289;-75
2021/05/10 01:34:30;;;;;;;;;;;;;;;12.13;56.63;100391.43;1727613;82;20513;-75
2021/05/10 01:36:59;;;;;;;;;;;;;;;12.11;56.58;100394.51;1712079;82;20174;-75
2021/05/10 01:39:25;;;;;;;;;;;;;;;12.09;56.65;100394.14;1733043;82;20279;-75
2021/05/10 01:41:51;;;;;;;;;;;;;;;12.07;56.67;100395.92;1730385;81;20809;-75
2021/05/10 01:44:18;;;;;;;;;;;;;;;12.03;56.62;100391.26;1725662;82;21059;-75
2021/05/10 01:46:44;;;;;;;;;;;;;;;12.00;56.76;100389.19;1730065;82;20557;-75
2021/05/10 01:49:10;;;;;;;;;;;;;;;11.98;56.79;100387.93;1728440;82;20213;-75
2021/05/10 01:51:37;;;;;;;;;;;;;;;11.97;56.87;100387.52;1731263;82;20597;-75
2021/05/10 01:54:04;;;;;;;;;;;;;;;11.93;56.78;100383.34;1707297;82;20312;-74
2021/05/10 01:56:30;;;;;;;;;;;;;;;11.92;56.97;100384.23;1730799;82;20309;-74
2021/05/10 01:58:57;;;;;;;;;;;;;;;11.90;56.91;100379.09;1729766;81;20581;-74
2021/05/10 02:01:23;;;;;;;;;;;;;;;11.87;56.98;100378.31;1730894;82;20228;-74
2021/05/10 02:03:49;;;;;;;;;;;;;;;11.87;56.98;100377.02;1731295;82;20504;-75
2021/05/10 02:06:15;;;;;;;;;;;;;;;11.85;57.00;100379.64;1730194;82;20293;-75
2021/05/10 02:08:44;;;;;;;;;;;;;;;11.85;56.86;100377.50;1730295;82;20901;-75
2021/05/10 02:11:11;;;;;;;;;;;;;;;11.84;57.07;100384.86;1730193;82;20518;-75
2021/05/10 02:13:37;;;;;;;;;;;;;;;11.81;57.13;100378.46;1729908;82;20225;-74
2021/05/10 02:16:03;;;;;;;;;;;;;;;11.81;57.17;100386.23;1730821;82;20796;-74
2021/05/10 02:18:31;;;;;;;;;;;;;;;11.80;57.19;100380.20;1731257;82;20297;-74
2021/05/10 02:20:58;;;;;;;;;;;;;;;11.79;57.02;100379.80;1712106;82;20556;-74
2021/05/10 02:23:26;;;;;;;;;;;;;;;11.78;57.22;100386.31;1730476;82;20182;-74
2021/05/10 02:25:54;;;;;;;;;;;;;;;11.76;57.20;100388.91;1732764;82;20477;-74
2021/05/10 02:28:28;;;;;;;;;;;;;;;11.74;57.29;100384.65;1720719;82;20441;-74
2021/05/10 02:30:56;;;;;;;;;;;;;;;11.75;57.26;100388.50;1732134;82;20254;-74
2021/05/10 02:33:27;;;;;;;;;;;;;;;11.75;57.31;100390.23;1732264;82;20743;-74
2021/05/10 02:36:09;;;;;;;;;;;;;;;11.73;57.30;100390.72;1731811;81;20865;-74
2021/05/10 02:38:35;;;;;;;;;;;;;;;11.69;57.36;100389.09;1732111;82;20548;-74
2021/05/10 02:41:01;;;;;;;;;;;;;;;11.66;57.38;100393.90;1731724;82;20726;-74
2021/05/10 02:43:28;;;;;;;;;;;;;;;11.67;57.40;100392.16;1731834;82;20510;-74
2021/05/10 02:45:54;;;;;;;;;;;;;;;11.64;57.42;100385.76;1731593;82;20482;-75
2021/05/10 02:48:21;;;;;;;;;;;;;;;11.61;57.41;100390.56;1731324;82;20540;-75
2021/05/10 02:50:47;;;;;;;;;;;;;;;11.60;57.52;100384.98;1716121;82;20446;-75
2021/05/10 02:53:13;;;;;;;;;;;;;;;11.59;57.49;100388.45;1731193;82;20414;-75
2021/05/10 02:55:39;;;;;;;;;;;;;;;11.57;57.55;100385.05;1713177;82;20288;-74
2021/05/10 02:58:05;;;;;;;;;;;;;;;11.57;57.46;100383.75;1732052;82;20473;-74
2021/05/10 03:00:31;;;;;;;;;;;;;;;11.57;57.51;100381.16;1726390;82;20472;-75
2021/05/10 03:02:57;;;;;;;;;;;;;;;11.57;57.56;100383.31;1716416;82;20613;-75
2021/05/10 03:05:25;;;;;;;;;;;;;;;11.58;57.57;100387.61;1725779;82;20641;-75
2021/05/10 03:07:51;;;;;;;;;;;;;;;11.60;57.56;100384.53;1727770;82;21076;-75
2021/05/10 03:10:20;;;;;;;;;;;;;;;11.64;57.56;100389.64;1728357;82;20297;-75
2021/05/10 03:12:47;;;;;;;;;;;;;;;11.67;57.57;100387.83;1731458;82;20620;-74
2021/05/10 03:15:15;;;;;;;;;;;;;;;11.70;57.49;100388.20;1730736;82;20584;-74
2021/05/10 03:17:41;;;;;;;;;;;;;;;11.73;57.53;100392.86;1730710;82;20516;-75
2021/05/10 03:20:09;;;;;;;;;;;;;;;11.77;57.61;100389.34;1730594;82;20303;-75
2021/05/10 03:22:36;;;;;;;;;;;;;;;11.79;57.58;100391.45;1718581;82;20566;-75
2021/05/10 03:25:02;;;;;;;;;;;;;;;11.83;57.58;100380.13;1720616;81;20301;-75
2021/05/10 03:27:29;;;;;;;;;;;;;;;11.88;57.48;100389.08;1731327;81;20285;-75
2021/05/10 03:29:55;;;;;;;;;;;;;;;11.89;57.56;100382.56;1730099;82;20297;-75
2021/05/10 03:32:21;;;;;;;;;;;;;;;11.92;57.62;100376.45;1731041;82;20237;-74
2021/05/10 03:34:50;;;;;;;;;;;;;;;11.94;57.68;100382.45;1730360;82;20957;-75
2021/05/10 03:37:16;;;;;;;;;;;;;;;11.94;57.60;100381.16;1730378;81;20343;-75
2021/05/10 03:39:45;;;;;;;;;;;;;;;11.96;57.64;100387.59;1724312;82;20969;-75
2021/05/10 03:42:11;;;;;;;;;;;;;;;11.93;57.58;100383.34;1730259;81;20474;-74
2021/05/10 03:44:37;;;;;;;;;;;;;;;11.93;57.58;100384.64;1731002;82;20514;-74
2021/05/10 03:47:03;;;;;;;;;;;;;;;11.96;57.71;100378.52;1730088;82;20402;-74
2021/05/10 03:49:29;;;;;;;;;;;;;;;12.00;57.60;100378.38;1730370;82;21000;-74
2021/05/10 03:51:55;;;;;;;;;;;;;;;12.02;57.68;100380.93;1730943;82;20609;-74
2021/05/10 03:54:21;;;;;;;;;;;;;;;12.05;57.71;100383.45;1730851;82;20301;-74
2021/05/10 03:56:48;;;;;;;;;;;;;;;12.08;57.74;100385.52;1727775;82;20705;-74
2021/05/10 03:59:14;;;;;;;;;;;;;;;12.18;57.74;100384.83;1722802;82;20483;-74
2021/05/10 04:01:40;;;;;;;;;;;;;;;12.31;57.92;100381.02;1730928;82;20268;-75
2021/05/10 04:14:51;;;;;;;;;;;;;;;13.44;57.66;100382.46;1720641;82;20295;-74
2021/05/10 04:17:26;;;;;;;;;;;;;;;13.63;57.53;100378.80;1718367;81;20566;-74
2021/05/10 04:19:52;;;;;;;;;;;;;;;13.75;57.44;100373.66;1714797;82;20299;-75
2021/05/10 04:22:18;;;;;;;;;;;;;;;13.85;57.41;100369.41;1728014;82;20221;-75
2021/05/10 04:24:56;;;;;;;;;;;;;;;13.94;57.35;100375.20;1727357;82;20309;-74
2021/05/10 04:27:22;;;;;;;;;;;;;;;13.98;57.29;100369.84;1724225;82;20288;-74
2021/05/10 04:29:48;;;;;;;;;;;;;;;13.98;57.25;100367.70;1726714;82;20335;-74
2021/05/10 04:32:14;;;;;;;;;;;;;;;13.99;57.16;100365.50;1731811;81;20213;-74
2021/05/10 04:34:40;;;;;;;;;;;;;;;13.99;57.15;100365.50;1720620;82;21083;-75
2021/05/10 04:37:06;;;;;;;;;;;;;;;13.99;57.17;100357.70;1706505;82;20311;-75
2021/05/10 04:39:32;;;;;;;;;;;;;;;13.98;57.14;100365.09;1724333;82;20289;-75
2021/05/10 04:41:58;;;;;;;;;;;;;;;13.98;57.17;100364.64;1730897;82;20555;-75
2021/05/10 04:44:26;;;;;;;;;;;;;;;14.01;57.15;100366.30;1731256;82;20305;-75
2021/05/10 04:46:52;;;;;;;;;;;;;;;14.03;57.19;100369.69;1730973;82;20309;-75
2021/05/10 04:49:18;;;;;;;;;;;;;;;14.05;57.15;100364.80;1720595;82;20193;-75
2021/05/10 04:51:44;;;;;;;;;;;;;;;14.11;57.15;100364.59;1725567;81;20330;-75
2021/05/10 04:54:10;;;;;;;;;;;;;;;14.15;57.14;100362.29;1722863;81;20230;-75
2021/05/10 04:56:36;;;;;;;;;;;;;;;14.27;57.15;100362.77;1727721;81;20367;-74
2021/05/10 04:59:03;;;;;;;;;;;;;;;14.44;57.19;100358.70;1724171;82;20273;-74
2021/05/10 05:01:35;;;;;;;;;;;;;;;14.70;57.20;100360.78;1732065;82;20312;-74
2021/05/10 05:04:04;;;;;;;;;;;;;;;15.14;57.23;100360.38;1715881;82;20300;-74
2021/05/10 05:06:30;;;;;;;;;;;;;;;15.74;57.23;100356.23;1731781;82;20653;-74
2021/05/10 05:08:56;;;;;;;;;;;;;;;16.39;57.05;100361.70;1731851;81;20308;-74
2021/05/10 05:11:22;;;;;;;;;;;;;;;17.08;56.96;100361.58;1714690;82;20241;-74
2021/05/10 05:13:48;;;;;;;;;;;;;;;17.76;56.79;100358.70;1728675;81;20286;-74
2021/05/10 05:16:17;;;;;;;;;;;;;;;18.34;56.46;100364.03;1728669;81;20313;-74
2021/05/10 05:18:43;;;;;;;;;;;;;;;18.86;56.35;100356.88;1726916;81;20224;-74
2021/05/10 05:21:09;;;;;;;;;;;;;;;19.36;55.94;100355.84;1726205;81;20311;-74
2021/05/10 05:23:42;;;;;;;;;;;;;;;19.81;56.03;100351.90;1718893;82;20312;-74
2021/05/10 05:26:08;;;;;;;;;;;;;;;20.28;55.51;100340.80;1721378;82;20215;-74
2021/05/10 05:28:34;;;;;;;;;;;;;;;20.71;55.45;100345.63;1714460;82;20317;-74
2021/05/10 05:31:09;;;;;;;;;;;;;;;21.15;55.22;100342.31;1721846;81;20291;-74
2021/05/10 05:33:35;;;;;;;;;;;;;;;21.60;55.15;100341.59;1727080;81;20232;-74
2021/05/10 05:36:01;;;;;;;;;;;;;;;22.07;54.89;100350.73;1721632;81;20285;-74
2021/05/10 05:38:33;;;;;;;;;;;;;;;22.53;54.38;100346.23;1720237;81;20296;-75
2021/05/10 05:40:55;;;;;;;;;;;;;;;22.95;54.17;100341.89;1718624;81;20287;-75
2021/05/10 05:43:21;;;;;;;;;;;;;;;23.43;54.18;100343.20;1733404;81;20292;-76
2021/05/10 05:45:47;;;;;;;;;;;;;;;23.86;54.03;100347.49;1733545;81;20249;-76
2021/05/10 05:48:14;;;;;;;;;;;;;;;24.12;53.78;100349.44;1722988;81;20272;-76
2021/05/10 05:50:40;;;;;;;;;;;;;;;24.46;53.71;100345.52;1728449;81;20266;-76
2021/05/10 05:53:06;;;;;;;;;;;;;;;24.86;53.62;100356.45;1725168;81;20182;-76
2021/05/10 05:55:33;;;;;;;;;;;;;;;25.19;53.37;100360.37;1713344;81;20271;-75
2021/05/10 05:58:02;;;;;;;;;;;;;;;25.43;53.13;100362.83;1723311;81;20257;-76
2021/05/10 06:00:29;;;;;;;;;;;;;;;25.68;53.03;100372.24;1715582;81;20187;-76
2021/05/10 06:02:55;;;;;;;;;;;;;;;25.90;52.66;100373.47;1722704;81;20251;-77
2021/05/10 06:05:28;;;;;;;;;;;;;;;25.99;52.96;100372.70;1727594;82;20178;-76
2021/05/10 06:07:54;;;;;;;;;;;;;;;26.10;52.52;100364.30;1724289;81;20191;-76
2021/05/10 06:10:23;;;;;;;;;;;;;;;26.29;52.32;100367.06;1729374;81;20162;-76
2021/05/10 06:12:50;;;;;;;;;;;;;;;26.28;51.98;100365.38;1726963;81;20164;-76
2021/05/10 06:15:20;;;;;;;;;;;;;;;26.25;51.62;100362.51;1727941;82;20186;-76
2021/05/10 06:17:47;;;;;;;;;;;;;;;26.24;51.30;100367.45;1727724;81;20166;-77
2021/05/10 06:20:14;;;;;;;;;;;;;;;26.09;51.13;100362.13;1716139;82;20278;-75
2021/05/10 06:22:41;;;;;;;;;;;;;;;25.97;50.85;100356.09;1699842;82;20270;-75
2021/05/10 06:25:09;;;;;;;;;;;;;;;25.88;50.87;100362.16;1718360;81;20277;-76
2021/05/10 06:27:35;;;;;;;;;;;;;;;25.87;50.55;100356.98;1723866;81;20277;-76
2021/05/10 06:30:06;;;;;;;;;;;;;;;25.86;50.24;100357.47;1722555;81;20246;-76
2021/05/10 06:32:33;;;;;;;;;;;;;;;25.71;50.17;100360.91;1726765;81;20185;-76
2021/05/10 06:34:59;;;;;;;;;;;;;;;25.71;49.83;100362.72;1729234;81;20296;-76
2021/05/10 06:37:29;;;;;;;;;;;;;;;25.71;49.60;100370.18;1719883;81;20169;-76
2021/05/10 06:39:54;;;;;;;;;;;;;;;25.74;49.46;100365.11;1718700;81;20258;-76
2021/05/10 06:42:19;;;;;;;;;;;;;;;25.76;49.20;100371.61;1726691;81;20448;-76
2021/05/10 06:44:46;;;;;;;;;;;;;;;25.92;49.00;100373.34;1723277;81;20162;-76
2021/05/10 06:47:12;;;;;;;;;;;;;;;25.98;48.77;100374.98;1727361;81;20219;-76
2021/05/10 06:49:41;;;;;;;;;;;;;;;26.03;48.66;100374.57;1722077;81;20245;-77
2021/05/10 06:52:07;;;;;;;;;;;;;;;26.20;48.59;100373.14;1722700;81;20245;-77
2021/05/10 06:54:33;;;;;;;;;;;;;;;26.36;48.24;100374.39;1726826;81;20142;-75
2021/05/10 06:56:59;;;;;;;;;;;;;;;26.31;48.00;100365.99;1712932;81;20257;-75
2021/05/10 06:59:28;;;;;;;;;;;;;;;26.35;47.98;100367.89;1719832;81;20602;-76
2021/05/10 07:01:54;;;;;;;;;;;;;;;26.55;47.93;100356.87;1716805;81;20271;-75
2021/05/10 07:04:20;;;;;;;;;;;;;;;26.73;47.71;100353.10;1682006;81;20237;-75
2021/05/10 07:06:46;;;;;;;;;;;;;;;26.98;47.62;100349.52;1722752;81;20358;-75
2021/05/10 07:09:13;;;;;;;;;;;;;;;27.14;47.68;100344.98;1723063;81;20257;-76
2021/05/10 07:11:39;;;;;;;;;;;;;;;27.25;47.18;100352.81;1721415;81;20253;-76
2021/05/10 07:14:05;;;;;;;;;;;;;;;27.28;47.27;100358.34;1721432;81;20276;-77
2021/05/10 07:16:34;;;;;;;;;;;;;;;27.33;47.23;100357.44;1722446;81;20547;-76
2021/05/10 07:19:00;;;;;;;;;;;;;;;27.30;47.00;100356.39;1723984;81;20280;-76
2021/05/10 07:21:26;;;;;;;;;;;;;;;27.31;47.08;100352.27;1720546;81;20268;-75
2021/05/10 07:23:53;;;;;;;;;;;;;;;27.37;46.94;100354.86;1722277;81;20234;-76
2021/05/10 07:26:19;;;;;;;;;;;;;;;27.45;47.08;100356.83;1724021;81;20287;-76
2021/05/10 07:28:45;;;;;;;;;;;;;;;27.46;46.83;100358.02;1717302;81;20268;-75
2021/05/10 07:31:11;;;;;;;;;;;;;;;27.38;45.73;100355.70;1711256;81;20249;-76
2021/05/10 07:33:38;;;;;;;;;;;;;;;27.35;45.81;100356.81;1714294;81;20265;-76
2021/05/10 07:36:04;;;;;;;;;;;;;;;27.29;45.41;100353.38;1723442;81;20256;-76
2021/05/10 07:38:30;;;;;;;;;;;;;;;27.14;45.14;100358.25;1717566;81;20241;-76
2021/05/10 07:40:56;;;;;;;;;;;;;;;27.01;45.09;100366.49;1725695;81;20194;-76
2021/05/10 07:43:23;;;;;;;;;;;;;;;26.94;45.00;100365.81;1723368;81;20229;-76
2021/05/10 07:45:48;;;;;;;;;;;;;;;26.82;44.93;100357.11;1722457;81;20253;-76
2021/05/10 07:48:21;;;;;;;;;;;;;;;26.68;44.86;100349.03;1725963;81;20249;-76
2021/05/10 07:50:49;;;;;;;;;;;;;;;26.65;44.55;100349.79;1714485;81;20253;-76
2021/05/10 07:53:16;;;;;;;;;;;;;;;26.66;44.18;100351.47;1716413;81;20190;-76
2021/05/10 07:55:42;;;;;;;;;;;;;;;26.52;43.88;100361.95;1726832;81;20273;-76
2021/05/10 07:58:24;;;;;;;;;;;;;;;26.32;43.87;100364.18;1718365;81;20246;-76
2021/05/10 08:00:53;;;;;;;;;;;;;;;26.28;43.87;100356.10;1718515;81;20275;-76
2021/05/10 08:03:20;;;;;;;;;;;;;;;26.30;43.76;100353.67;1724399;81;20287;-76
2021/05/10 08:05:52;;;;;;;;;;;;;;;26.28;43.58;100345.50;1721669;81;20251;-76
2021/05/10 08:08:23;;;;;;;;;;;;;;;26.28;43.32;100340.20;1722466;81;20261;-76
2021/05/10 08:10:50;;;;;;;;;;;;;;;26.27;43.18;100335.87;1715821;81;20192;-76
2021/05/10 08:13:22;;;;;;;;;;;;;;;26.24;43.11;100335.64;1725770;81;20173;-76
2021/05/10 08:15:51;;;;;;;;;;;;;;;26.21;42.94;100337.23;1722662;81;20548;-76
2021/05/10 08:18:17;;;;;;;;;;;;;;;26.31;43.35;100330.69;1728669;81;20245;-76
2021/05/10 08:20:57;;;;;;;;;;;;;;;26.41;42.95;100334.23;1719924;81;20180;-77
2021/05/10 08:23:24;;;;;;;;;;;;;;;26.49;42.84;100317.16;1723370;81;20176;-77
2021/05/10 08:25:50;;;;;;;;;;;;;;;26.52;42.89;100314.22;1726226;81;20257;-76
2021/05/10 08:28:18;;;;;;;;;;;;;;;26.56;42.98;100312.97;1726297;81;20249;-76
2021/05/10 08:30:44;;;;;;;;;;;;;;;26.49;42.50;100324.28;1718932;81;20223;-76
2021/05/10 08:33:13;;;;;;;;;;;;;;;26.29;42.26;100318.02;1726555;81;20247;-75
2021/05/10 08:35:41;;;;;;;;;;;;;;;26.16;42.33;100308.95;1712185;81;20247;-74
2021/05/10 08:38:08;;;;;;;;;;;;;;;25.99;42.27;100306.94;1708757;81;20279;-76
2021/05/10 08:40:34;;;;;;;;;;;;;;;25.72;41.99;100299.52;1722671;81;20247;-76
2021/05/10 08:43:00;;;;;;;;;;;;;;;25.51;42.19;100295.97;1720521;81;20209;-76
2021/05/10 08:45:26;;;;;;;;;;;;;;;25.35;41.92;100291.98;1731015;81;20142;-76
2021/05/10 08:47:59;;;;;;;;;;;;;;;25.63;41.80;100300.25;1712049;81;20323;-76
2021/05/10 08:50:29;;;;;;;;;;;;;;;26.28;41.46;100307.06;1724202;81;20190;-76
2021/05/10 08:52:55;;;;;;;;;;;;;;;26.98;41.89;100312.84;1722982;81;20254;-76
2021/05/10 08:55:33;;;;;;;;;;;;;;;27.59;41.71;100317.41;1719046;81;20273;-76
2021/05/10 08:57:59;;;;;;;;;;;;;;;28.13;41.86;100329.17;1721500;81;20150;-76
2021/05/10 09:00:28;;;;;;;;;;;;;;;28.47;41.82;100328.19;1721173;81;20261;-76
2021/05/10 09:03:10;;;;;;;;;;;;;;;28.61;41.40;100326.84;1718129;81;20296;-75
2021/05/10 09:05:46;;;;;;;;;;;;;;;28.54;41.41;100325.78;1715786;81;20261;-76
2021/05/10 09:08:15;;;;;;;;;;;;;;;28.38;41.31;100321.58;1722297;81;20162;-76
2021/05/10 09:10:43;;;;;;;;;;;;;;;28.21;41.64;100317.36;1723490;81;20158;-76
2021/05/10 09:13:09;;;;;;;;;;;;;;;27.96;41.57;100303.36;1728728;81;20768;-76
2021/05/10 09:15:57;;;;;;;;;;;;;;;27.60;41.38;100294.33;1727825;81;20274;-76
2021/05/10 09:18:23;;;;;;;;;;;;;;;26.96;41.23;100292.24;1726143;81;20265;-76
2021/05/10 09:20:49;;;;;;;;;;;;;;;26.33;40.99;100296.44;1729867;81;21510;-75
2021/05/10 09:23:15;;;;;;;;;;;;;;;25.76;40.62;100300.09;1719037;81;20166;-76
2021/05/10 09:25:42;;;;;;;;;;;;;;;25.23;40.48;100308.87;1726860;81;20253;-76
2021/05/10 09:28:20;;;;;;;;;;;;;;;24.89;40.52;100300.66;1726642;81;20201;-76
2021/05/10 09:30:58;;;;;;;;;;;;;;;24.62;40.08;100305.86;1720136;81;20262;-76
2021/05/10 09:33:26;;;;;;;;;;;;;;;24.43;40.41;100301.70;1716807;80;20280;-76
2021/05/10 09:36:01;;;;;;;;;;;;;;;24.31;40.02;100303.50;1651352;81;5000110;-76
2021/05/10 09:38:29;;;;;;;;;;;;;;;24.21;39.99;100305.63;1721376;81;20261;-76
2021/05/10 09:41:04;;;;;;;;;;;;;;;24.10;39.80;100307.77;1673137;83;20253;-76
2021/05/10 09:43:35;;;;;;;;;;;;;;;23.96;39.66;100311.47;1660011;84;20201;-76
2021/05/10 09:46:06;;;;;;;;;;;;;;;23.74;39.30;100304.84;1661897;84;20180;-76
2021/05/10 09:48:44;;;;;;;;;;;;;;;23.55;39.38;100307.18;1663944;83;20196;-75
2021/05/10 09:51:12;;;;;;;;;;;;;;;23.41;39.46;100307.70;1672032;84;20278;-76
2021/05/10 09:53:45;;;;;;;;;;;;;;;23.37;39.38;100304.11;1673896;83;20222;-76
2021/05/10 09:56:32;;;;;;;;;;;;;;;23.33;39.17;100301.33;1662957;84;20273;-75
2021/05/10 09:59:07;;;;;;;;;;;;;;;23.27;39.39;100295.19;1670938;84;20288;-75
2021/05/10 10:01:45;;;;;;;;;;;;;;;23.33;39.34;100296.05;1672361;84;20282;-76
2021/05/10 10:04:14;;;;;;;;;;;;;;;23.33;39.12;100302.17;1663356;84;20292;-76
2021/05/10 10:06:40;;;;;;;;;;;;;;;23.35;39.25;100295.47;1661568;84;20284;-75
2021/05/10 10:09:06;;;;;;;;;;;;;;;23.40;39.18;100299.41;1677665;84;20261;-75
2021/05/10 10:11:33;;;;;;;;;;;;;;;23.42;39.30;100292.70;1672594;83;20194;-76
2021/05/10 10:14:00;;;;;;;;;;;;;;;23.47;39.26;100297.64;1654255;84;20188;-76
2021/05/10 10:16:30;;;;;;;;;;;;;;;23.54;39.07;100294.46;1670851;84;20198;-76
2021/05/10 10:19:02;;;;;;;;;;;;;;;23.65;39.30;100296.30;1673062;84;20296;-76
2021/05/10 10:21:28;;;;;;;;;;;;;;;23.69;39.10;100284.07;1661292;85;20280;-76
2021/05/10 10:24:02;;;;;;;;;;;;;;;23.75;39.11;100289.36;1660933;84;20188;-75
2021/05/10 10:26:28;;;;;;;;;;;;;;;23.79;39.05;100283.38;1662089;84;20200;-76
2021/05/10 10:28:54;;;;;;;;;;;;;;;23.91;39.09;100277.16;1660736;85;20263;-76
2021/05/10 10:31:30;;;;;;;;;;;;;;;23.96;38.93;100278.94;1666778;83;20263;-76
2021/05/10 10:34:04;;;;;;;;;;;;;;;24.01;38.94;100277.63;1716027;81;20293;-76
2021/05/10 10:36:39;;;;;;;;;;;;;;;24.03;38.96;100280.14;1706250;81;20263;-76
2021/05/10 10:39:13;;;;;;;;;;;;;;;24.02;38.78;100283.27;1715416;83;20245;-76
2021/05/10 10:41:58;;;;;;;;;;;;;;;23.98;38.89;100284.46;1715163;83;20272;-76
2021/05/10 10:44:31;;;;;;;;;;;;;;;24.07;39.05;100284.23;1718679;80;20167;-76
2021/05/10 10:47:03;;;;;;;;;;;;;;;24.17;39.03;100282.56;1721512;82;20275;-76
2021/05/10 10:49:33;;;;;;;;;;;;;;;24.28;39.10;100290.52;1721528;82;20275;-76
2021/05/10 10:51:59;;;;;;;;;;;;;;;24.37;38.76;100294.25;1732098;82;20248;-76
2021/05/10 10:54:30;;;;;;;;;;;;;;;24.38;38.83;100291.48;1723474;82;20267;-76
2021/05/10 10:57:01;;;;;;;;;;;;;;;24.45;38.90;100293.62;1726021;82;20273;-75
2021/05/10 10:59:30;;;;;;;;;;;;;;;24.43;38.77;100288.48;1730554;82;20255;-77
2021/05/10 11:01:57;;;;;;;;;;;;;;;24.37;38.57;100287.16;1736658;80;20308;-77
2021/05/10 11:04:28;;;;;;;;;;;;;;;24.34;38.91;100290.05;1737522;82;20252;-77
2021/05/10 11:06:57;;;;;;;;;;;;;;;24.39;38.91;100293.65;1739051;81;20185;-77
2021/05/10 11:09:51;;;;;;;;;;;;;;;24.43;38.81;100305.16;1728454;82;20289;-77
2021/05/10 11:12:48;;;;;;;;;;;;;;;24.50;38.83;100293.62;1736655;82;20272;-77
2021/05/10 11:15:34;;;;;;;;;;;;;;;24.56;38.92;100291.81;1722110;82;20260;-77
2021/05/10 11:18:04;;;;;;;;;;;;;;;24.69;38.96;100293.00;1734080;82;20185;-77
2021/05/10 11:20:39;;;;;;;;;;;;;;;24.82;38.88;100287.09;1724282;82;20259;-77
2021/05/10 11:23:25;;;;;;;;;;;;;;;24.88;38.75;100285.27;1734875;81;20163;-77
2021/05/10 11:25:54;;;;;;;;;;;;;;;24.93;38.66;100288.39;1731608;80;20256;-77
2021/05/10 11:28:30;;;;;;;;;;;;;;;24.93;38.70;100281.77;1735155;81;20245;-77
2021/05/10 11:31:02;;;;;;;;;;;;;;;24.94;38.77;100282.13;1741981;82;20264;-77
2021/05/10 11:33:54;;;;;;;;;;;;;;;25.01;38.72;100283.31;1731249;81;20180;-79
2021/05/10 11:36:37;;;;;;;;;;;;;;;25.09;38.85;100286.66;1729296;82;20277;-79
2021/05/10 11:39:06;;;;;;;;;;;;;;;25.23;38.89;100288.18;1734204;81;20521;-79
2021/05/10 11:41:38;;;;;;;;;;;;;;;25.32;38.84;100278.16;1736825;82;20283;-79
2021/05/10 11:44:06;;;;;;;;;;;;;;;25.31;38.46;100274.67;1739708;81;20285;-79
2021/05/10 11:46:41;;;;;;;;;;;;;;;25.28;38.62;100271.44;1734679;81;20269;-79
2021/05/10 11:49:10;;;;;;;;;;;;;;;25.26;38.64;100268.92;1733456;82;20275;-78
2021/05/10 11:51:38;;;;;;;;;;;;;;;25.23;38.57;100266.52;1733036;82;20273;-79
2021/05/10 11:54:08;;;;;;;;;;;;;;;25.24;38.53;100260.27;1734090;81;20269;-79
2021/05/10 11:56:41;;;;;;;;;;;;;;;25.26;38.58;100262.30;1730119;82;20281;-79
2021/05/10 12:02:23;;;;;;;;;;;;;;;25.44;38.72;100259.94;1734084;81;20269;-79
2021/05/10 12:04:52;;;;;;;;;;;;;;;25.58;38.83;100262.23;1738848;81;20276;-79
2021/05/10 12:07:21;;;;;;;;;;;;;;;25.75;38.63;100266.63;1730819;82;20257;-79
2021/05/10 12:09:53;;;;;;;;;;;;;;;25.86;38.47;100270.53;1728614;82;20295;-79
2021/05/10 12:12:21;;;;;;;;;;;;;;;25.91;38.52;100273.63;1733033;82;20189;-79
2021/05/10 12:14:53;;;;;;;;;;;;;;;25.95;38.33;100263.97;1730142;82;20271;-78
2021/05/10 12:17:27;;;;;;;;;;;;;;;25.96;38.18;100260.34;1737547;82;20333;-78
2021/05/10 12:20:08;;;;;;;;;;;;;;;25.91;38.23;100257.25;1732628;82;20496;-78
2021/05/10 12:22:46;;;;;;;;;;;;;;;25.92;38.52;100266.88;1713978;82;20492;-78
2021/05/10 12:25:30;;;;;;;;;;;;;;;25.95;38.42;100263.13;1737045;82;20292;-79
2021/05/10 12:28:17;;;;;;;;;;;;;;;26.00;38.43;100269.67;1730169;82;20284;-78
2021/05/10 12:30:57;;;;;;;;;;;;;;;26.01;38.43;100267.87;1743328;81;20261;-78
2021/05/10 12:33:28;;;;;;;;;;;;;;;25.93;38.28;100265.91;1721149;81;20263;-78
2021/05/10 12:36:02;;;;;;;;;;;;;;;25.88;38.25;100267.27;1733149;82;20579;-78
2021/05/10 12:38:30;;;;;;;;;;;;;;;25.83;38.24;100256.22;1732428;82;20275;-78
2021/05/10 12:40:57;;;;;;;;;;;;;;;25.82;38.36;100257.19;1735045;82;20340;-78
2021/05/10 12:43:24;;;;;;;;;;;;;;;25.84;38.45;100252.61;1737577;82;20255;-78
2021/05/10 12:46:00;;;;;;;;;;;;;;;25.82;38.11;100260.68;1736664;82;20260;-78
2021/05/10 12:48:39;;;;;;;;;;;;;;;25.73;38.16;100254.84;1743146;82;20296;-78
2021/05/10 12:51:14;;;;;;;;;;;;;;;25.72;38.41;100248.70;1742697;82;20276;-78
2021/05/10 12:53:43;;;;;;;;;;;;;;;25.79;38.24;100255.64;1739298;82;20277;-78
2021/05/10 12:56:19;;;;;;;;;;;;;;;25.81;38.11;100262.13;1737757;82;20273;-78
2021/05/10 12:58:46;;;;;;;;;;;;;;;25.84;38.45;100265.84;1743802;80;20166;-78